createdAt,value
2022-08-05T00:02:51.317Z,6.47
2022-08-05T00:06:04.978Z,6.28
2022-08-05T00:09:19.431Z,4.45
2022-08-05T00:12:22.753Z,3.92
2022-08-05T00:15:56.383Z,5.00
2022-08-05T00:18:50.179Z,5.10
2022-08-05T00:21:54.049Z,5.40
2022-08-05T00:24:58.667Z,5.72
2022-08-05T00:28:01.714Z,6.82
2022-08-05T00:31:07.586Z,4.50
2022-08-05T00:34:55.858Z,4.88
2022-08-05T00:37:50.906Z,7.72
2022-08-05T00:41:00.135Z,4.60
2022-08-05T00:44:03.609Z,4.45
2022-08-05T00:47:06.797Z,5.18
2022-08-05T00:50:15.226Z,4.97
2022-08-05T00:53:45.057Z,5.47
2022-08-05T00:56:51.822Z,5.18
2022-08-05T00:59:55.762Z,3.97
2022-08-05T01:03:00.066Z,4.63
2022-08-05T01:06:05.357Z,8.52
2022-08-05T01:09:08.619Z,4.32
2022-08-05T01:12:19.229Z,5.05
2022-08-05T01:15:35.547Z,5.78
2022-08-05T01:18:56.183Z,3.60
2022-08-05T01:22:24.069Z,5.18
2022-08-05T01:25:53.756Z,4.53
2022-08-05T01:29:04.385Z,6.63
2022-08-05T01:32:18.678Z,8.38
2022-08-05T01:35:51.060Z,8.10
2022-08-05T01:38:51.496Z,15.52
2022-08-05T01:41:56.980Z,7.32
2022-08-05T01:45:03.472Z,7.90
2022-08-05T01:48:10.880Z,6.53
2022-08-05T01:51:15.946Z,6.10
2022-08-05T01:54:25.489Z,8.80
2022-08-05T01:58:09.705Z,8.93
2022-08-05T02:01:00.676Z,6.50
2022-08-05T02:04:05.408Z,7.55
2022-08-05T02:07:08.531Z,6.35
2022-08-05T02:10:17.533Z,7.68
2022-08-05T02:13:28.583Z,7.13
2022-08-05T02:16:55.383Z,6.70
2022-08-05T02:20:02.948Z,6.22
2022-08-05T02:23:10.248Z,5.85
2022-08-05T02:26:17.445Z,7.68
2022-08-05T02:29:26.067Z,5.43
2022-08-05T02:32:34.579Z,7.22
2022-08-05T02:35:49.910Z,6.65
2022-08-05T02:38:59.723Z,4.97
2022-08-05T02:42:04.978Z,6.63
2022-08-05T02:45:10.372Z,9.55
2022-08-05T02:48:15.990Z,7.65
2022-08-05T02:51:28.207Z,7.13
2022-08-05T02:54:50.760Z,7.05
2022-08-05T02:58:10.139Z,4.22
2022-08-05T03:01:24.894Z,8.68
2022-08-05T03:04:30.641Z,5.38
2022-08-05T03:08:00.331Z,8.73
2022-08-05T03:11:47.620Z,7.10
2022-08-05T03:14:21.494Z,4.82
2022-08-05T03:17:24.713Z,6.20
2022-08-05T03:20:29.474Z,6.55
2022-08-05T03:23:34.634Z,5.93
2022-08-05T03:26:38.498Z,10.43
2022-08-05T03:29:46.003Z,9.50
2022-08-05T03:33:07.352Z,5.72
2022-08-05T03:36:12.358Z,6.20
2022-08-05T03:39:26.739Z,7.85
2022-08-05T03:42:32.276Z,5.07
2022-08-05T03:45:58.291Z,8.45
2022-08-05T03:48:59.488Z,5.28
2022-08-05T03:52:48.367Z,6.05
2022-08-05T03:55:52.812Z,6.60
2022-08-05T03:59:08.786Z,7.10
2022-08-05T04:02:17.302Z,4.57
2022-08-05T04:05:36.770Z,6.55
2022-08-05T04:08:45.226Z,6.85
2022-08-05T04:11:52.758Z,6.13
2022-08-05T04:14:57.780Z,4.40
2022-08-05T04:18:03.390Z,7.57
2022-08-05T04:21:07.335Z,4.75
2022-08-05T04:24:19.704Z,6.47
2022-08-05T04:27:33.350Z,6.05
2022-08-05T04:30:45.345Z,7.22
2022-08-05T04:34:18.439Z,5.40
2022-08-05T04:37:12.014Z,6.75
2022-08-05T04:40:19.478Z,4.50
2022-08-05T04:43:22.803Z,6.90
2022-08-05T04:46:29.071Z,6.60
2022-08-05T04:49:38.482Z,5.55
2022-08-05T04:52:55.534Z,7.50
2022-08-05T04:56:33.341Z,4.18
2022-08-05T04:59:37.419Z,5.90
2022-08-05T05:02:43.284Z,10.52
2022-08-05T05:06:40.556Z,5.82
2022-08-05T05:09:13.253Z,5.18
2022-08-05T05:12:18.817Z,6.43
2022-08-05T05:16:01.804Z,5.25
2022-08-05T05:19:02.744Z,8.73
2022-08-05T05:22:22.929Z,5.03
2022-08-05T05:25:32.502Z,5.32
2022-08-05T05:28:42.871Z,7.15
2022-08-05T05:31:48.237Z,7.60
2022-08-05T05:34:52.321Z,4.40
2022-08-05T05:38:01.701Z,4.80
2022-08-05T05:41:05.324Z,6.10
2022-08-05T05:44:26.988Z,5.35
2022-08-05T05:48:05.536Z,4.72
2022-08-05T05:50:59.142Z,6.75
2022-08-05T05:54:18.539Z,9.63
2022-08-05T05:57:23.252Z,6.60
2022-08-05T06:00:31.738Z,6.28
2022-08-05T06:03:54.128Z,6.65
2022-08-05T06:07:01.573Z,10.55
2022-08-05T06:10:10.040Z,10.10
2022-08-05T06:13:13.533Z,7.80
2022-08-05T06:16:30.696Z,11.27
2022-08-05T06:19:35.906Z,8.15
2022-08-05T06:22:40.557Z,6.28
2022-08-05T06:26:13.856Z,10.63
2022-08-05T06:29:25.551Z,13.82
2022-08-05T06:32:33.138Z,9.98
2022-08-05T06:36:08.078Z,14.10
2022-08-05T06:38:59.292Z,12.38
2022-08-05T06:42:04.082Z,9.93
2022-08-05T06:45:09.313Z,8.20
2022-08-05T06:48:54.499Z,10.07
2022-08-05T06:51:40.821Z,10.15
2022-08-05T06:54:43.973Z,12.60
2022-08-05T06:58:02.863Z,7.50
2022-08-05T07:01:21.048Z,7.45
2022-08-05T07:04:25.589Z,9.95
2022-08-05T07:07:43.340Z,4.75
2022-08-05T07:10:53.452Z,6.68
2022-08-05T07:14:15.636Z,9.23
2022-08-05T07:18:09.288Z,5.90
2022-08-05T07:20:55.935Z,8.68
2022-08-05T07:24:01.285Z,6.28
2022-08-05T07:27:04.733Z,7.20
2022-08-05T07:30:23.827Z,5.20
2022-08-05T07:33:36.588Z,5.78
2022-08-05T07:36:42.479Z,4.25
2022-08-05T07:40:26.044Z,6.97
2022-08-05T07:43:14.776Z,5.38
2022-08-05T07:46:26.060Z,4.65
2022-08-05T07:49:29.518Z,4.90
2022-08-05T07:52:33.946Z,4.18
2022-08-05T07:56:05.849Z,6.75
2022-08-05T07:59:00.057Z,5.30
2022-08-05T08:02:03.504Z,4.68
2022-08-05T08:05:07.698Z,4.18
2022-08-05T08:08:15.972Z,5.32
2022-08-05T08:11:27.640Z,4.95
2022-08-05T08:14:47.073Z,4.05
2022-08-05T08:17:52.873Z,5.35
2022-08-05T08:21:02.179Z,3.53
2022-08-05T08:24:13.741Z,8.30
2022-08-05T08:27:17.159Z,8.48
2022-08-05T08:30:32.912Z,5.00
2022-08-05T08:33:39.662Z,11.50
2022-08-05T08:36:50.181Z,6.40
2022-08-05T08:39:59.346Z,5.55
2022-08-05T08:45:01.617Z,4.22
2022-08-05T08:46:29.119Z,5.47
2022-08-05T08:50:22.880Z,4.78
2022-08-05T08:53:07.919Z,2.78
2022-08-05T08:56:17.234Z,3.55
2022-08-05T08:59:21.830Z,2.38
2022-08-05T09:02:30.972Z,3.50
2022-08-05T09:05:38.231Z,7.75
2022-08-05T09:08:42.178Z,2.72
2022-08-05T09:11:51.932Z,6.13
2022-08-05T09:15:05.777Z,4.38
2022-08-05T09:18:10.002Z,5.00
2022-08-05T09:21:20.885Z,3.63
2022-08-05T09:24:39.942Z,5.43
2022-08-05T09:28:04.051Z,4.68
2022-08-05T09:31:23.483Z,4.20
2022-08-05T09:34:51.560Z,2.67
2022-08-05T09:38:16.986Z,3.90
2022-08-05T09:41:19.479Z,4.32
2022-08-05T09:44:36.825Z,2.97
2022-08-05T09:47:55.351Z,2.22
2022-08-05T09:51:01.520Z,4.53
2022-08-05T09:54:08.333Z,3.30
2022-08-05T09:57:23.172Z,2.88
2022-08-05T10:00:29.622Z,3.30
2022-08-05T10:03:56.576Z,2.97
2022-08-05T10:06:59.930Z,11.48
2022-08-05T10:10:14.885Z,19.13
2022-08-05T10:13:44.081Z,50.22
2022-08-05T10:16:53.544Z,80.18
2022-08-05T10:20:04.564Z,79.05
2022-08-05T10:23:21.843Z,93.82
2022-08-05T10:26:51.180Z,98.75
2022-08-05T10:30:41.581Z,107.15
2022-08-05T10:33:21.262Z,108.47
2022-08-05T10:36:26.221Z,109.55
2022-08-05T10:40:03.218Z,85.82
2022-08-05T10:43:02.355Z,79.82
2022-08-05T10:46:09.348Z,40.60
2022-08-05T10:49:17.246Z,32.05
2022-08-05T10:52:49.396Z,22.63
2022-08-05T10:56:21.047Z,24.88
2022-08-05T11:00:04.399Z,22.30
2022-08-05T11:03:23.181Z,23.60
2022-08-05T11:06:31.876Z,22.10
2022-08-05T11:10:09.571Z,17.20
2022-08-05T11:13:40.750Z,21.52
2022-08-05T11:18:07.392Z,16.90
2022-08-05T11:20:57.618Z,15.40
2022-08-05T11:24:30.702Z,11.60
2022-08-05T11:27:50.760Z,9.20
2022-08-05T11:31:58.503Z,8.35
2022-08-05T11:34:59.533Z,9.85
2022-08-05T11:38:29.210Z,8.73
2022-08-05T11:41:56.477Z,6.95
2022-08-05T11:44:53.659Z,8.13
2022-08-05T11:47:59.026Z,8.32
2022-08-05T11:51:03.170Z,7.70
2022-08-05T11:54:07.073Z,4.72
2022-08-05T11:57:25.259Z,8.27
2022-08-05T12:00:30.378Z,6.68
2022-08-05T12:03:43.302Z,4.13
2022-08-05T12:07:01.836Z,6.03
2022-08-05T12:10:09.236Z,8.18
2022-08-05T12:13:28.068Z,5.70
2022-08-05T12:16:45.141Z,7.18
2022-08-05T12:20:26.353Z,4.60
2022-08-05T12:23:15.082Z,6.50
2022-08-05T12:26:18.175Z,4.40
2022-08-05T12:29:25.133Z,5.82
2022-08-05T12:32:28.461Z,3.35
2022-08-05T12:35:36.969Z,6.40
2022-08-05T12:38:43.282Z,3.47
2022-08-05T12:41:46.871Z,5.72
2022-08-05T12:44:53.036Z,3.63
2022-08-05T12:48:01.404Z,5.10
2022-08-05T12:52:11.210Z,6.03
2022-08-05T12:54:44.691Z,3.88
2022-08-05T12:58:38.569Z,3.33
2022-08-05T13:02:03.463Z,3.03
2022-08-05T13:04:52.423Z,5.45
2022-08-05T13:08:00.863Z,3.75
2022-08-05T13:11:04.516Z,4.13
2022-08-05T13:14:19.341Z,3.83
2022-08-05T13:17:31.863Z,4.93
2022-08-05T13:20:44.670Z,4.07
2022-08-05T13:23:52.187Z,2.88
2022-08-05T13:26:55.477Z,4.18
2022-08-05T13:30:34.510Z,3.10
2022-08-05T13:34:22.197Z,3.85
2022-08-05T13:36:47.455Z,2.40
2022-08-05T13:40:16.700Z,2.63
2022-08-05T13:43:22.037Z,2.97
2022-08-05T13:46:51.034Z,4.18
2022-08-05T13:49:53.298Z,3.30
2022-08-05T13:52:56.726Z,2.88
2022-08-05T13:56:02.179Z,3.35
2022-08-05T13:59:06.322Z,2.97
2022-08-05T14:02:26.478Z,3.67
2022-08-05T14:06:24.485Z,2.45
2022-08-05T14:08:57.639Z,2.65
2022-08-05T14:12:17.084Z,3.20
2022-08-05T14:16:06.038Z,2.60
2022-08-05T14:18:44.737Z,3.58
2022-08-05T14:22:09.998Z,5.50
2022-08-05T14:25:21.666Z,3.03
2022-08-05T14:28:27.083Z,3.88
2022-08-05T14:31:54.526Z,2.80
2022-08-05T14:34:53.689Z,5.82
2022-08-05T14:37:59.158Z,3.70
2022-08-05T14:41:07.719Z,2.55
2022-08-05T14:44:20.360Z,3.53
2022-08-05T14:48:02.948Z,4.80
2022-08-05T14:50:47.043Z,4.47
2022-08-05T14:54:06.609Z,3.42
2022-08-05T14:57:16.146Z,3.35
2022-08-05T15:00:21.434Z,4.10
2022-08-05T15:03:33.828Z,4.22
2022-08-05T15:06:37.927Z,5.78
2022-08-05T15:09:51.356Z,4.82
2022-08-05T15:13:03.668Z,5.43
2022-08-05T15:16:07.843Z,3.80
2022-08-05T15:19:23.514Z,5.00
2022-08-05T15:22:28.131Z,5.00
2022-08-05T15:25:51.667Z,3.97
2022-08-05T15:28:56.097Z,3.58
2022-08-05T15:32:03.111Z,3.72
2022-08-05T15:35:10.860Z,3.95
2022-08-05T15:38:34.522Z,6.03
2022-08-05T15:41:55.910Z,5.70
2022-08-05T15:45:01.028Z,3.75
2022-08-05T15:48:05.065Z,4.45
2022-08-05T15:51:09.862Z,5.25
2022-08-05T15:54:15.068Z,4.10
2022-08-05T15:57:20.259Z,3.83
2022-08-05T16:00:26.005Z,4.32
2022-08-05T16:03:35.917Z,3.00
2022-08-05T16:06:44.310Z,3.38
2022-08-05T16:09:47.314Z,3.55
2022-08-05T16:12:51.790Z,4.50
2022-08-05T16:15:55.589Z,5.07
2022-08-05T16:18:58.597Z,4.85
2022-08-05T16:22:03.711Z,3.45
2022-08-05T16:25:09.550Z,6.88
2022-08-05T16:28:15.543Z,4.38
2022-08-05T16:31:18.762Z,4.68
2022-08-05T16:34:23.345Z,7.00
2022-08-05T16:38:03.341Z,5.93
2022-08-05T16:40:54.964Z,3.83
2022-08-05T16:44:00.782Z,5.47
2022-08-05T16:47:04.087Z,7.25
2022-08-05T16:50:09.978Z,4.72
2022-08-05T16:53:23.357Z,4.30
2022-08-05T16:56:36.470Z,4.78
2022-08-05T17:00:02.919Z,4.88
2022-08-05T17:03:15.263Z,4.32
2022-08-05T17:06:24.722Z,4.95
2022-08-05T17:09:27.935Z,5.38
2022-08-05T17:12:51.486Z,5.32
2022-08-05T17:16:13.166Z,6.05
2022-08-05T17:19:19.746Z,5.85
2022-08-05T17:22:25.443Z,8.70
2022-08-05T17:25:33.786Z,4.22
2022-08-05T17:28:37.372Z,3.72
2022-08-05T17:31:58.433Z,5.05
2022-08-05T17:35:02.167Z,3.58
2022-08-05T17:38:07.790Z,3.13
2022-08-05T17:42:18.236Z,2.80
2022-08-05T17:44:34.878Z,4.95
2022-08-05T17:47:39.886Z,3.10
2022-08-05T17:50:43.098Z,3.65
2022-08-05T17:53:50.790Z,2.35
2022-08-05T17:56:58.553Z,1.88
2022-08-05T18:00:05.623Z,2.38
2022-08-05T18:03:10.284Z,1.02
2022-08-05T18:06:15.213Z,2.45
2022-08-05T18:09:18.774Z,1.20
2022-08-05T18:12:24.179Z,3.33
2022-08-05T18:15:28.083Z,1.13
2022-08-05T18:18:39.886Z,1.63
2022-08-05T18:22:08.832Z,2.38
2022-08-05T18:25:07.288Z,1.20
2022-08-05T18:28:10.386Z,1.02
2022-08-05T18:31:15.911Z,0.80
2022-08-05T18:34:21.672Z,1.08
2022-08-05T18:37:33.508Z,2.22
2022-08-05T18:41:57.289Z,2.03
2022-08-05T18:44:05.606Z,3.58
2022-08-05T18:47:12.153Z,1.15
2022-08-05T18:50:42.267Z,2.08
2022-08-05T18:53:50.470Z,1.10
2022-08-05T18:56:53.735Z,0.65
2022-08-05T19:00:02.314Z,1.50
2022-08-05T19:03:07.206Z,2.25
2022-08-05T19:06:22.165Z,1.58
2022-08-05T19:09:40.075Z,1.63
2022-08-05T19:12:43.465Z,1.73
2022-08-05T19:15:57.060Z,0.63
2022-08-05T19:19:01.585Z,0.75
2022-08-05T19:22:06.275Z,1.13
2022-08-05T19:25:10.247Z,1.20
2022-08-05T19:28:24.751Z,1.38
2022-08-05T19:31:27.843Z,1.70
2022-08-05T19:34:36.929Z,1.20
2022-08-05T19:38:06.906Z,1.30
2022-08-05T19:41:06.999Z,1.23
2022-08-05T19:44:13.027Z,1.00
2022-08-05T19:47:17.081Z,1.52
2022-08-05T19:50:21.002Z,1.23
2022-08-05T19:54:04.062Z,1.17
2022-08-05T19:56:52.522Z,2.80
2022-08-05T20:00:02.440Z,1.17
2022-08-05T20:03:14.392Z,1.60
2022-08-05T20:06:28.738Z,1.52
2022-08-05T20:09:54.375Z,1.13
2022-08-05T20:12:56.798Z,1.38
2022-08-05T20:16:00.813Z,2.42
2022-08-05T20:19:07.368Z,2.33
2022-08-05T20:22:10.423Z,1.27
2022-08-05T20:25:15.841Z,1.30
2022-08-05T20:28:18.833Z,2.92
2022-08-05T20:31:37.023Z,2.92
2022-08-05T20:34:46.255Z,3.40
2022-08-05T20:38:05.328Z,1.73
2022-08-05T20:41:11.587Z,1.65
2022-08-05T20:44:30.583Z,5.07
2022-08-05T20:47:34.117Z,2.15
2022-08-05T20:50:45.482Z,4.30
2022-08-05T20:53:56.398Z,3.03
2022-08-05T20:57:03.367Z,1.15
2022-08-05T21:00:21.338Z,1.52
2022-08-05T21:03:34.481Z,3.03
2022-08-05T21:06:38.325Z,1.48
2022-08-05T21:09:53.814Z,4.25
2022-08-05T21:13:08.959Z,3.70
2022-08-05T21:16:17.848Z,1.48
2022-08-05T21:19:20.831Z,2.72
2022-08-05T21:22:26.846Z,3.38
2022-08-05T21:25:34.131Z,2.15
2022-08-05T21:28:40.105Z,1.17
2022-08-05T21:31:51.383Z,1.17
2022-08-05T21:34:56.026Z,1.17
2022-08-05T21:38:18.025Z,1.73
2022-08-05T21:41:20.968Z,1.70
2022-08-05T21:44:27.058Z,3.88
2022-08-05T21:47:56.571Z,1.98
2022-08-05T21:50:54.322Z,1.65
2022-08-05T21:54:03.480Z,0.98
2022-08-05T21:57:30.948Z,2.92
2022-08-05T22:00:31.841Z,3.00
2022-08-05T22:03:48.568Z,3.00
2022-08-05T22:06:57.054Z,3.95
2022-08-05T22:10:00.659Z,1.73
2022-08-05T22:13:09.199Z,1.50
2022-08-05T22:16:41.611Z,2.38
2022-08-05T22:20:00.678Z,3.33
2022-08-05T22:24:01.168Z,2.10
2022-08-05T22:27:11.044Z,3.33
2022-08-05T22:30:17.507Z,1.55
2022-08-05T22:33:57.080Z,2.03
2022-08-05T22:36:44.862Z,2.97
2022-08-05T22:39:52.459Z,3.55
2022-08-05T22:42:58.501Z,3.58
2022-08-05T22:46:04.645Z,2.65
2022-08-05T22:50:18.483Z,1.15
2022-08-05T22:52:37.492Z,1.35
2022-08-05T22:55:56.261Z,1.77
2022-08-05T22:59:04.019Z,2.63
2022-08-05T23:02:29.183Z,1.35
2022-08-05T23:05:36.055Z,1.92
2022-08-05T23:08:39.286Z,1.50
2022-08-05T23:11:46.644Z,1.58
2022-08-05T23:14:53.322Z,2.00
2022-08-05T23:18:00.551Z,0.90
2022-08-05T23:21:07.702Z,1.83
2022-08-05T23:24:13.391Z,1.25
2022-08-05T23:27:17.270Z,2.15
2022-08-05T23:30:26.877Z,1.95
2022-08-05T23:34:05.323Z,2.13
2022-08-05T23:36:56.239Z,1.65
2022-08-05T23:40:07.479Z,2.90
2022-08-05T23:43:24.951Z,0.98
2022-08-05T23:46:37.501Z,1.25
2022-08-05T23:49:42.345Z,1.70
2022-08-05T23:52:51.610Z,1.30
2022-08-05T23:55:56.848Z,1.23
2022-08-05T23:59:02.312Z,3.53
